Time;durP1;ratioP1;P1;durP2;ratioP2;P2;SDS_P1;SDS_P2;PMS_P1;PMS_P2;Temp;Humidity;BMP_temperature;BMP_pressure;BME280_temperature;BME280_humidity;BME280_pressure;Samples;Min_cycle;Max_cycle;Signal;HPM_P1;HPM_P2
2021/09/17 00:01:32;;;;;;;2.90;2.40;;;;;;;;;;5033181;28;20046;-61
2021/09/17 00:03:57;;;;;;;3.58;2.53;;;;;;;;;;5033525;28;20025;-59
2021/09/17 00:06:23;;;;;;;3.95;3.03;;;;;;;;;;5033012;28;20646;-58
2021/09/17 00:08:48;;;;;;;4.60;2.85;;;;;;;;;;5035130;28;20116;-58
2021/09/17 00:11:13;;;;;;;4.57;2.90;;;;;;;;;;5036868;28;20021;-60
2021/09/17 00:13:39;;;;;;;3.58;3.25;;;;;;;;;;5036330;28;20361;-56
2021/09/17 00:16:04;;;;;;;3.85;2.83;;;;;;;;;;5036442;28;20025;-61
2021/09/17 00:18:30;;;;;;;3.78;3.42;;;;;;;;;;5037081;28;20392;-59
2021/09/17 00:20:55;;;;;;;3.47;3.17;;;;;;;;;;5034772;28;20021;-62
2021/09/17 00:23:21;;;;;;;2.97;2.78;;;;;;;;;;5034011;28;20099;-61
2021/09/17 00:25:46;;;;;;;3.15;2.78;;;;;;;;;;5034837;28;20022;-62
2021/09/17 00:28:11;;;;;;;4.03;3.55;;;;;;;;;;5036974;28;20040;-61
2021/09/17 00:30:37;;;;;;;2.47;2.08;;;;;;;;;;5033534;28;20017;-63
2021/09/17 00:33:03;;;;;;;3.13;2.80;;;;;;;;;;5035288;28;20021;-59
2021/09/17 00:35:28;;;;;;;3.45;2.92;;;;;;;;;;5036347;28;20148;-59
2021/09/17 00:37:53;;;;;;;3.63;2.45;;;;;;;;;;5036095;28;20095;-60
2021/09/17 00:40:19;;;;;;;3.78;2.53;;;;;;;;;;5035362;28;20374;-61
2021/09/17 00:42:44;;;;;;;3.15;2.50;;;;;;;;;;5035443;28;20094;-58
2021/09/17 00:45:10;;;;;;;3.28;2.35;;;;;;;;;;5033993;28;20116;-59
2021/09/17 00:47:36;;;;;;;3.63;2.60;;;;;;;;;;5035676;28;20065;-61
2021/09/17 00:50:03;;;;;;;2.78;2.58;;;;;;;;;;5034358;28;20064;-61
2021/09/17 00:52:29;;;;;;;3.17;2.50;;;;;;;;;;5035460;28;20064;-62
2021/09/17 00:54:54;;;;;;;3.13;2.90;;;;;;;;;;5034517;28;20557;-60
2021/09/17 00:57:19;;;;;;;2.55;2.35;;;;;;;;;;5034593;28;20069;-58
2021/09/17 00:59:44;;;;;;;3.35;3.05;;;;;;;;;;5037457;28;20120;-59
2021/09/17 01:02:10;;;;;;;4.32;2.58;;;;;;;;;;5033185;28;20022;-60
2021/09/17 01:04:35;;;;;;;3.50;3.22;;;;;;;;;;5034322;28;20056;-61
2021/09/17 01:07:00;;;;;;;2.92;2.72;;;;;;;;;;5034789;28;20474;-62
2021/09/17 01:09:26;;;;;;;5.60;2.67;;;;;;;;;;5036712;28;20070;-62
2021/09/17 01:11:51;;;;;;;3.17;2.70;;;;;;;;;;5034280;28;20053;-59
2021/09/17 01:14:18;;;;;;;2.95;2.75;;;;;;;;;;5033902;28;20536;-60
2021/09/17 01:16:44;;;;;;;3.25;2.45;;;;;;;;;;5031714;28;20096;-62
2021/09/17 01:19:09;;;;;;;2.75;2.53;;;;;;;;;;5034742;28;20033;-59
2021/09/17 01:21:34;;;;;;;3.70;2.95;;;;;;;;;;5037197;28;20104;-60
2021/09/17 01:23:59;;;;;;;3.13;2.75;;;;;;;;;;5032602;28;20417;-61
2021/09/17 01:26:25;;;;;;;3.83;2.67;;;;;;;;;;5035355;28;20025;-62
2021/09/17 01:28:50;;;;;;;2.45;2.35;;;;;;;;;;5037120;28;20021;-59
2021/09/17 01:31:15;;;;;;;3.58;3.15;;;;;;;;;;5032667;28;20112;-57
2021/09/17 01:33:41;;;;;;;3.40;2.78;;;;;;;;;;5035540;28;20032;-60
2021/09/17 01:36:07;;;;;;;3.15;2.80;;;;;;;;;;5034488;28;20081;-63
2021/09/17 01:38:34;;;;;;;3.67;2.90;;;;;;;;;;5035730;28;20053;-60
2021/09/17 01:40:59;;;;;;;2.90;2.60;;;;;;;;;;5035436;28;20058;-63
2021/09/17 01:43:25;;;;;;;3.35;3.08;;;;;;;;;;5036011;28;20025;-63
2021/09/17 01:45:50;;;;;;;2.83;2.63;;;;;;;;;;5034269;28;20024;-63
2021/09/17 01:48:16;;;;;;;2.90;2.45;;;;;;;;;;5034314;28;20156;-60
2021/09/17 01:50:41;;;;;;;2.63;2.42;;;;;;;;;;5034973;28;20029;-60
2021/09/17 01:53:06;;;;;;;4.30;2.85;;;;;;;;;;5035230;28;20017;-61
2021/09/17 01:55:32;;;;;;;2.75;2.55;;;;;;;;;;5036091;28;20041;-61
2021/09/17 01:57:57;;;;;;;3.33;2.80;;;;;;;;;;5033571;28;20071;-59
2021/09/17 02:00:22;;;;;;;3.13;2.65;;;;;;;;;;5033780;28;20098;-61
2021/09/17 02:02:48;;;;;;;3.33;3.10;;;;;;;;;;5037480;28;20033;-63
2021/09/17 02:05:13;;;;;;;3.28;3.03;;;;;;;;;;5033583;28;20028;-62
2021/09/17 02:07:39;;;;;;;4.28;3.45;;;;;;;;;;5034614;28;20039;-64
2021/09/17 02:10:04;;;;;;;3.03;2.70;;;;;;;;;;5033997;28;20036;-59
2021/09/17 02:12:29;;;;;;;1.90;1.80;;;;;;;;;;5034516;28;20035;-62
2021/09/17 02:14:55;;;;;;;1.83;1.73;;;;;;;;;;5035292;28;20021;-62
2021/09/17 02:17:22;;;;;;;2.20;2.10;;;;;;;;;;5032303;28;20032;-63
2021/09/17 02:19:47;;;;;;;1.90;1.80;;;;;;;;;;5034647;28;20059;-60
2021/09/17 02:22:12;;;;;;;1.38;1.38;;;;;;;;;;5032983;28;20080;-59
2021/09/17 02:24:37;;;;;;;1.90;1.80;;;;;;;;;;5036210;28;20084;-60
2021/09/17 02:27:03;;;;;;;2.67;2.42;;;;;;;;;;5032333;28;20009;-62
2021/09/17 02:29:28;;;;;;;2.50;2.30;;;;;;;;;;5035068;28;20048;-61
2021/09/17 02:31:53;;;;;;;2.80;2.60;;;;;;;;;;5032839;28;20017;-62
2021/09/17 02:34:19;;;;;;;2.33;2.13;;;;;;;;;;5034976;28;20681;-63
2021/09/17 02:36:44;;;;;;;2.83;2.63;;;;;;;;;;5032036;28;20049;-65
2021/09/17 02:39:11;;;;;;;2.67;2.47;;;;;;;;;;5036207;28;20033;-64
2021/09/17 02:41:37;;;;;;;2.63;2.13;;;;;;;;;;5032995;28;20053;-61
2021/09/17 02:44:02;;;;;;;2.70;2.60;;;;;;;;;;5033778;28;20052;-62
2021/09/17 02:46:28;;;;;;;2.78;2.58;;;;;;;;;;5031797;28;20485;-65
2021/09/17 02:48:53;;;;;;;2.45;2.35;;;;;;;;;;5031524;28;20091;-62
2021/09/17 02:51:18;;;;;;;2.60;2.40;;;;;;;;;;5035119;28;20849;-65
2021/09/17 02:53:43;;;;;;;3.88;2.65;;;;;;;;;;5034120;28;20025;-67
2021/09/17 02:56:09;;;;;;;2.55;2.35;;;;;;;;;;5035230;28;20355;-63
2021/09/17 02:58:36;;;;;;;3.67;3.22;;;;;;;;;;5034766;28;20025;-64
2021/09/17 03:01:01;;;;;;;2.88;2.67;;;;;;;;;;5031414;28;20469;-60
2021/09/17 03:03:27;;;;;;;3.97;3.58;;;;;;;;;;5032126;28;20033;-64
2021/09/17 03:05:52;;;;;;;4.30;2.40;;;;;;;;;;5033563;28;20707;-65
2021/09/17 03:08:17;;;;;;;2.67;2.47;;;;;;;;;;5035224;28;20258;-63
2021/09/17 03:10:43;;;;;;;2.75;2.55;;;;;;;;;;5032376;28;20029;-62
2021/09/17 03:13:08;;;;;;;2.33;2.20;;;;;;;;;;5033208;28;20668;-63
2021/09/17 03:15:33;;;;;;;2.78;2.58;;;;;;;;;;5034290;28;20013;-64
2021/09/17 03:17:58;;;;;;;2.63;2.42;;;;;;;;;;5032065;28;20037;-61
2021/09/17 03:20:24;;;;;;;3.20;3.00;;;;;;;;;;5033843;28;20017;-63
2021/09/17 03:22:49;;;;;;;2.47;2.28;;;;;;;;;;5032326;28;20028;-59
2021/09/17 03:25:14;;;;;;;2.80;2.60;;;;;;;;;;5034770;28;20351;-62
2021/09/17 03:27:40;;;;;;;2.88;2.67;;;;;;;;;;5033340;28;20025;-58
2021/09/17 03:30:05;;;;;;;2.80;2.60;;;;;;;;;;5031456;28;20504;-62
2021/09/17 03:32:30;;;;;;;2.63;2.42;;;;;;;;;;5039478;28;20048;-63
2021/09/17 03:34:56;;;;;;;2.90;2.65;;;;;;;;;;5033063;28;20040;-62
2021/09/17 03:37:21;;;;;;;5.28;2.83;;;;;;;;;;5034470;28;20166;-64
2021/09/17 03:39:46;;;;;;;3.00;2.70;;;;;;;;;;5032317;28;20037;-66
2021/09/17 03:42:12;;;;;;;2.67;2.47;;;;;;;;;;5032964;28;20017;-58
2021/09/17 03:44:37;;;;;;;3.35;3.05;;;;;;;;;;5037964;28;20030;-63
2021/09/17 03:47:02;;;;;;;3.42;2.85;;;;;;;;;;5036425;28;20036;-64
2021/09/17 03:49:28;;;;;;;3.20;2.92;;;;;;;;;;5038336;28;20103;-62
2021/09/17 03:51:53;;;;;;;4.47;2.92;;;;;;;;;;5037646;28;20016;-63
2021/09/17 03:54:21;;;;;;;2.97;2.60;;;;;;;;;;5038449;28;20060;-61
2021/09/17 03:56:46;;;;;;;4.43;3.30;;;;;;;;;;5037687;28;20508;-60
2021/09/17 03:59:12;;;;;;;2.88;2.67;;;;;;;;;;5037342;28;20029;-63
2021/09/17 04:01:37;;;;;;;2.88;2.67;;;;;;;;;;5035193;28;20013;-63
2021/09/17 04:04:02;;;;;;;3.17;2.97;;;;;;;;;;5036378;28;20013;-62
2021/09/17 04:06:27;;;;;;;3.28;2.97;;;;;;;;;;5037287;28;20187;-64
2021/09/17 04:08:53;;;;;;;3.35;3.05;;;;;;;;;;5034665;28;20056;-62
2021/09/17 04:11:18;;;;;;;5.28;3.50;;;;;;;;;;5035185;28;20049;-63
2021/09/17 04:13:44;;;;;;;3.63;3.33;;;;;;;;;;5036879;28;20029;-63
2021/09/17 04:16:09;;;;;;;4.53;3.42;;;;;;;;;;5037278;28;20018;-64
2021/09/17 04:18:35;;;;;;;3.15;2.95;;;;;;;;;;5036433;28;20111;-62
2021/09/17 04:21:00;;;;;;;3.20;3.00;;;;;;;;;;5039410;28;20031;-62
2021/09/17 04:23:25;;;;;;;2.83;2.58;;;;;;;;;;5035874;28;20021;-65
2021/09/17 04:25:51;;;;;;;2.75;2.55;;;;;;;;;;5036267;28;20029;-60
2021/09/17 04:28:16;;;;;;;4.55;3.55;;;;;;;;;;5035330;28;20029;-59
2021/09/17 04:30:41;;;;;;;2.90;2.60;;;;;;;;;;5036141;28;20045;-62
2021/09/17 04:33:07;;;;;;;3.00;2.80;;;;;;;;;;5035914;28;20075;-59
2021/09/17 04:35:32;;;;;;;3.05;2.75;;;;;;;;;;5036018;28;20044;-63
2021/09/17 04:37:58;;;;;;;3.10;2.90;;;;;;;;;;5035810;28;20088;-63
2021/09/17 04:40:24;;;;;;;3.00;2.80;;;;;;;;;;5034397;28;20814;-63
2021/09/17 04:42:50;;;;;;;3.17;2.85;;;;;;;;;;5035109;28;20106;-64
2021/09/17 04:45:15;;;;;;;3.90;2.90;;;;;;;;;;5034312;28;20381;-63
2021/09/17 04:47:40;;;;;;;3.13;2.92;;;;;;;;;;5036992;28;20412;-63
2021/09/17 04:50:06;;;;;;;3.05;2.70;;;;;;;;;;5035709;28;21246;-63
2021/09/17 04:52:32;;;;;;;3.00;2.70;;;;;;;;;;5033978;28;20049;-66
2021/09/17 04:54:59;;;;;;;3.13;2.92;;;;;;;;;;5032872;28;20021;-63
2021/09/17 04:57:24;;;;;;;3.33;2.78;;;;;;;;;;5033610;28;20025;-65
2021/09/17 04:59:50;;;;;;;3.20;2.90;;;;;;;;;;5037273;28;20047;-61
2021/09/17 05:02:15;;;;;;;2.78;2.47;;;;;;;;;;5033523;28;20017;-58
2021/09/17 05:04:40;;;;;;;3.88;3.55;;;;;;;;;;5033375;28;20021;-61
2021/09/17 05:07:05;;;;;;;3.47;3.25;;;;;;;;;;5036072;28;20246;-61
2021/09/17 05:09:32;;;;;;;3.80;3.60;;;;;;;;;;5036942;28;20028;-69
2021/09/17 05:11:57;;;;;;;3.35;3.10;;;;;;;;;;5035955;28;20055;-66
2021/09/17 05:14:22;;;;;;;3.60;3.30;;;;;;;;;;5039045;28;20033;-57
2021/09/17 05:16:48;;;;;;;3.70;3.25;;;;;;;;;;5033813;28;20025;-61
2021/09/17 05:19:13;;;;;;;3.70;3.40;;;;;;;;;;5036995;28;20068;-61
2021/09/17 05:21:39;;;;;;;4.00;3.63;;;;;;;;;;5035821;28;20104;-65
2021/09/17 05:24:04;;;;;;;4.60;4.20;;;;;;;;;;5035051;28;20053;-61
2021/09/17 05:26:29;;;;;;;5.82;5.32;;;;;;;;;;5034347;28;20373;-61
2021/09/17 05:28:54;;;;;;;4.82;4.43;;;;;;;;;;5033858;28;20029;-57
2021/09/17 05:31:20;;;;;;;12.93;6.28;;;;;;;;;;5037231;28;20519;-64
2021/09/17 05:33:45;;;;;;;7.97;6.57;;;;;;;;;;5037935;28;20029;-66
2021/09/17 05:36:10;;;;;;;7.68;6.88;;;;;;;;;;5032821;28;20076;-66
2021/09/17 05:38:35;;;;;;;7.95;7.15;;;;;;;;;;5033879;28;20083;-65
2021/09/17 05:41:01;;;;;;;10.57;8.07;;;;;;;;;;5034109;28;20469;-64
2021/09/17 05:43:26;;;;;;;8.45;7.65;;;;;;;;;;5035025;28;20025;-64
2021/09/17 05:45:51;;;;;;;9.60;7.63;;;;;;;;;;5033903;28;20021;-62
2021/09/17 05:48:16;;;;;;;8.15;7.35;;;;;;;;;;5033264;28;20017;-64
2021/09/17 05:50:42;;;;;;;9.52;7.80;;;;;;;;;;5032765;28;20492;-64
2021/09/17 05:53:07;;;;;;;9.65;8.70;;;;;;;;;;5032971;28;20367;-68
2021/09/17 05:55:32;;;;;;;8.10;7.40;;;;;;;;;;5033080;28;20437;-64
2021/09/17 05:57:57;;;;;;;8.95;8.10;;;;;;;;;;5031742;28;20112;-64
2021/09/17 06:00:23;;;;;;;9.93;8.88;;;;;;;;;;5031418;28;20025;-63
2021/09/17 06:02:48;;;;;;;9.35;8.05;;;;;;;;;;5035318;28;20021;-64
2021/09/17 06:05:13;;;;;;;8.38;7.57;;;;;;;;;;5033550;28;20024;-61
2021/09/17 06:07:40;;;;;;;11.70;8.63;;;;;;;;;;5031733;28;20758;-61
2021/09/17 06:10:05;;;;;;;8.93;7.78;;;;;;;;;;5034307;28;20540;-64
2021/09/17 06:12:30;;;;;;;8.88;8.00;;;;;;;;;;5032184;28;20028;-64
2021/09/17 06:14:56;;;;;;;10.30;9.30;;;;;;;;;;5033146;28;20022;-62
2021/09/17 06:17:21;;;;;;;10.57;9.52;;;;;;;;;;5033090;28;20418;-64
2021/09/17 06:19:47;;;;;;;8.85;8.05;;;;;;;;;;5034914;28;20033;-62
2021/09/17 06:22:12;;;;;;;9.85;8.75;;;;;;;;;;5032986;28;20067;-61
2021/09/17 06:24:37;;;;;;;9.80;8.90;;;;;;;;;;5031530;28;20017;-63
2021/09/17 06:27:02;;;;;;;10.95;9.85;;;;;;;;;;5033164;28;20168;-64
2021/09/17 06:29:28;;;;;;;9.30;8.40;;;;;;;;;;5034803;28;20393;-64
2021/09/17 06:31:53;;;;;;;10.00;9.07;;;;;;;;;;5034111;28;20021;-62
2021/09/17 06:34:18;;;;;;;10.35;8.77;;;;;;;;;;5033483;28;20026;-61
2021/09/17 06:36:43;;;;;;;10.23;9.23;;;;;;;;;;5034163;28;20175;-63
2021/09/17 06:39:09;;;;;;;10.90;9.75;;;;;;;;;;5034848;28;20025;-62
2021/09/17 06:41:34;;;;;;;11.13;10.02;;;;;;;;;;5033668;28;20497;-63
2021/09/17 06:44:00;;;;;;;10.40;8.80;;;;;;;;;;5034286;28;20041;-66
2021/09/17 06:46:25;;;;;;;12.90;9.50;;;;;;;;;;5032332;28;20025;-62
2021/09/17 06:48:50;;;;;;;9.90;8.55;;;;;;;;;;5033886;28;20531;-60
2021/09/17 06:51:16;;;;;;;11.38;10.27;;;;;;;;;;5032760;28;20013;-63
2021/09/17 06:53:41;;;;;;;10.90;9.75;;;;;;;;;;5031787;28;20427;-63
2021/09/17 06:56:06;;;;;;;10.25;9.25;;;;;;;;;;5029366;28;20029;-64
2021/09/17 06:58:31;;;;;;;9.32;8.43;;;;;;;;;;5033376;28;20041;-63
2021/09/17 07:00:57;;;;;;;9.35;8.45;;;;;;;;;;5031086;28;20074;-62
2021/09/17 07:03:22;;;;;;;10.88;8.95;;;;;;;;;;5033703;28;20463;-62
2021/09/17 07:05:48;;;;;;;9.20;8.25;;;;;;;;;;5032052;28;20282;-65
2021/09/17 07:08:13;;;;;;;10.65;8.82;;;;;;;;;;5032810;28;20040;-65
2021/09/17 07:10:39;;;;;;;8.25;7.55;;;;;;;;;;5033945;28;20529;-66
2021/09/17 07:13:05;;;;;;;7.82;7.20;;;;;;;;;;5032357;28;20752;-65
2021/09/17 07:15:30;;;;;;;8.05;7.18;;;;;;;;;;5033720;28;20141;-65
2021/09/17 07:17:56;;;;;;;8.18;7.40;;;;;;;;;;5036432;28;20039;-65
2021/09/17 07:20:21;;;;;;;7.82;7.13;;;;;;;;;;5037613;28;20029;-64
2021/09/17 07:22:46;;;;;;;8.57;7.78;;;;;;;;;;5036161;28;20545;-65
2021/09/17 07:25:12;;;;;;;9.48;8.48;;;;;;;;;;5036379;28;20033;-62
2021/09/17 07:27:38;;;;;;;9.15;8.23;;;;;;;;;;5036587;28;20021;-63
2021/09/17 07:30:04;;;;;;;8.27;7.47;;;;;;;;;;5035732;28;20094;-64
2021/09/17 07:32:29;;;;;;;10.05;9.07;;;;;;;;;;5036402;28;20017;-65
2021/09/17 07:34:55;;;;;;;10.05;7.40;;;;;;;;;;5036407;28;20029;-64
2021/09/17 07:37:21;;;;;;;9.20;8.27;;;;;;;;;;5037072;28;20414;-67
2021/09/17 07:39:46;;;;;;;10.02;9.13;;;;;;;;;;5038171;28;20120;-63
2021/09/17 07:42:11;;;;;;;10.45;9.23;;;;;;;;;;5036025;28;20031;-64
2021/09/17 07:44:37;;;;;;;9.27;8.45;;;;;;;;;;5036943;28;20145;-66
2021/09/17 07:47:02;;;;;;;10.75;9.75;;;;;;;;;;5038062;28;20366;-65
2021/09/17 07:49:28;;;;;;;9.90;8.90;;;;;;;;;;5036961;28;20039;-65
2021/09/17 07:51:53;;;;;;;10.23;9.23;;;;;;;;;;5035907;28;20017;-68
2021/09/17 07:54:18;;;;;;;10.75;9.65;;;;;;;;;;5035788;28;20961;-67
2021/09/17 07:56:43;;;;;;;10.45;9.35;;;;;;;;;;5037913;28;20817;-64
2021/09/17 07:59:09;;;;;;;11.77;9.23;;;;;;;;;;5036117;28;20048;-64
2021/09/17 08:01:34;;;;;;;10.90;9.27;;;;;;;;;;5036138;28;20033;-63
2021/09/17 08:03:59;;;;;;;9.77;8.88;;;;;;;;;;5038617;28;20045;-60
2021/09/17 08:06:24;;;;;;;11.15;9.00;;;;;;;;;;5036222;28;20072;-61
2021/09/17 08:08:50;;;;;;;10.63;9.52;;;;;;;;;;5036537;28;20117;-59
2021/09/17 08:11:15;;;;;;;10.10;8.68;;;;;;;;;;5038327;28;20757;-62
2021/09/17 08:13:40;;;;;;;10.18;9.18;;;;;;;;;;5035176;28;20052;-62
2021/09/17 08:16:05;;;;;;;10.30;9.30;;;;;;;;;;5039354;28;20060;-60
2021/09/17 08:18:32;;;;;;;9.75;8.75;;;;;;;;;;5038323;28;20028;-59
2021/09/17 08:21:00;;;;;;;10.40;9.40;;;;;;;;;;5036692;28;20109;-60
2021/09/17 08:23:27;;;;;;;11.10;9.93;;;;;;;;;;5038881;28;20025;-59
2021/09/17 08:25:55;;;;;;;10.65;9.55;;;;;;;;;;5036153;28;20026;-64
2021/09/17 08:28:21;;;;;;;9.60;7.05;;;;;;;;;;5035576;28;20041;-66
2021/09/17 08:30:47;;;;;;;9.05;8.25;;;;;;;;;;5036638;28;20480;-64
2021/09/17 08:33:12;;;;;;;8.60;7.80;;;;;;;;;;5038538;28;20506;-65
2021/09/17 08:35:37;;;;;;;10.27;7.47;;;;;;;;;;5032570;28;20099;-66
2021/09/17 08:38:03;;;;;;;7.45;6.75;;;;;;;;;;5035217;28;20033;-64
2021/09/17 08:40:28;;;;;;;8.27;7.57;;;;;;;;;;5034539;28;20033;-62
2021/09/17 08:42:55;;;;;;;8.18;7.45;;;;;;;;;;5035107;28;20426;-64
2021/09/17 08:45:20;;;;;;;7.88;7.07;;;;;;;;;;5036323;28;20021;-64
2021/09/17 08:47:49;;;;;;;8.68;7.97;;;;;;;;;;5035784;28;20032;-62
2021/09/17 08:50:15;;;;;;;7.53;6.82;;;;;;;;;;5035753;28;20040;-61
2021/09/17 08:52:40;;;;;;;6.00;5.50;;;;;;;;;;5039389;28;20029;-62
2021/09/17 08:55:06;;;;;;;7.78;6.90;;;;;;;;;;5038763;28;20023;-62
2021/09/17 08:57:31;;;;;;;7.07;6.30;;;;;;;;;;5036896;28;20029;-61
2021/09/17 08:59:56;;;;;;;6.65;5.88;;;;;;;;;;5034333;28;20389;-63
2021/09/17 09:02:26;;;;;;;6.60;6.00;;;;;;;;;;5032420;28;20032;-64
2021/09/17 09:04:57;;;;;;;7.38;6.72;;;;;;;;;;5035639;28;20035;-64
2021/09/17 09:07:30;;;;;;;6.82;6.22;;;;;;;;;;5035700;28;20037;-64
2021/09/17 09:09:55;;;;;;;5.88;5.38;;;;;;;;;;5033769;28;20033;-64
2021/09/17 09:12:23;;;;;;;6.70;6.10;;;;;;;;;;5035677;28;20021;-65
2021/09/17 09:14:48;;;;;;;6.82;6.22;;;;;;;;;;5036129;28;20026;-63
2021/09/17 09:17:13;;;;;;;6.07;5.68;;;;;;;;;;5034712;28;20036;-64
2021/09/17 09:19:39;;;;;;;5.68;5.18;;;;;;;;;;5034649;28;20056;-64
2021/09/17 09:22:04;;;;;;;5.57;5.07;;;;;;;;;;5034813;28;20020;-63
2021/09/17 09:24:30;;;;;;;5.88;5.40;;;;;;;;;;5035036;28;20343;-64
2021/09/17 09:27:16;;;;;;;5.88;5.35;;;;;;;;;;5033385;28;20017;-65
2021/09/17 09:29:59;;;;;;;4.80;4.40;;;;;;;;;;5033884;28;20535;-64
2021/09/17 09:32:25;;;;;;;6.57;5.97;;;;;;;;;;5034547;28;20116;-64
2021/09/17 09:34:50;;;;;;;5.75;5.25;;;;;;;;;;5033779;28;20135;-65
2021/09/17 09:37:19;;;;;;;3.75;3.55;;;;;;;;;;5034418;28;20106;-64
2021/09/17 09:39:48;;;;;;;4.80;4.40;;;;;;;;;;5033985;28;20389;-64
2021/09/17 09:42:16;;;;;;;8.40;4.70;;;;;;;;;;5032230;28;20052;-64
2021/09/17 09:45:02;;;;;;;5.25;4.28;;;;;;;;;;5034632;28;20029;-65
2021/09/17 09:47:34;;;;;;;4.22;3.88;;;;;;;;;;5034753;28;20435;-66
2021/09/17 09:50:03;;;;;;;4.72;4.32;;;;;;;;;;5033368;28;20024;-64
2021/09/17 09:52:30;;;;;;;4.00;3.70;;;;;;;;;;5034230;28;20030;-66
2021/09/17 09:54:55;;;;;;;4.90;4.55;;;;;;;;;;5035688;28;20108;-66
2021/09/17 09:57:21;;;;;;;4.78;4.47;;;;;;;;;;5033810;28;20033;-66
2021/09/17 09:59:46;;;;;;;4.97;4.57;;;;;;;;;;5033112;28;20025;-65
2021/09/17 10:02:12;;;;;;;4.50;4.10;;;;;;;;;;5035488;28;20052;-64
2021/09/17 10:04:38;;;;;;;4.88;3.92;;;;;;;;;;5034300;28;20024;-64
2021/09/17 10:07:04;;;;;;;4.38;4.00;;;;;;;;;;5033740;28;20488;-62
2021/09/17 10:09:31;;;;;;;4.07;3.78;;;;;;;;;;5033879;28;20037;-64
2021/09/17 10:11:59;;;;;;;3.88;3.58;;;;;;;;;;5033072;28;20471;-63
2021/09/17 10:14:25;;;;;;;3.85;3.15;;;;;;;;;;5034902;28;20018;-63
2021/09/17 10:16:51;;;;;;;5.20;3.90;;;;;;;;;;5032811;28;20048;-63
2021/09/17 10:19:19;;;;;;;4.60;4.18;;;;;;;;;;5031981;28;20029;-65
2021/09/17 10:21:50;;;;;;;5.00;4.57;;;;;;;;;;5033065;28;20025;-63
2021/09/17 10:24:35;;;;;;;4.30;3.90;;;;;;;;;;5033500;28;20021;-64
2021/09/17 10:27:02;;;;;;;4.93;3.80;;;;;;;;;;5032597;28;20780;-63
2021/09/17 10:29:55;;;;;;;3.70;3.40;;;;;;;;;;5033565;28;20067;-68
2021/09/17 10:32:26;;;;;;;4.43;4.07;;;;;;;;;;5032880;28;20031;-68
2021/09/17 10:35:09;;;;;;;4.40;4.00;;;;;;;;;;5030713;28;20033;-69
2021/09/17 10:37:53;;;;;;;4.82;3.85;;;;;;;;;;5033307;28;20028;-67
2021/09/17 10:40:39;;;;;;;4.00;3.78;;;;;;;;;;5031459;28;20119;-68
2021/09/17 10:43:11;;;;;;;3.15;2.95;;;;;;;;;;5032634;28;20017;-68
2021/09/17 10:45:37;;;;;;;3.22;3.03;;;;;;;;;;5032334;28;20021;-68
2021/09/17 10:48:03;;;;;;;4.97;2.80;;;;;;;;;;5032448;28;20156;-68
2021/09/17 10:50:46;;;;;;;3.70;3.15;;;;;;;;;;5031032;28;20033;-69
2021/09/17 10:53:11;;;;;;;2.97;2.75;;;;;;;;;;5031095;28;20033;-67
2021/09/17 10:56:01;;;;;;;3.42;3.22;;;;;;;;;;5024847;28;20481;-66
2021/09/17 10:58:28;;;;;;;3.13;2.92;;;;;;;;;;5034452;28;20025;-67
2021/09/17 11:01:01;;;;;;;3.58;3.28;;;;;;;;;;5032559;28;20027;-64
2021/09/17 11:03:35;;;;;;;3.42;3.15;;;;;;;;;;5033744;28;20100;-64
2021/09/17 11:06:19;;;;;;;3.03;2.83;;;;;;;;;;5033146;28;20465;-64
2021/09/17 11:08:54;;;;;;;6.40;3.78;;;;;;;;;;5033496;28;20029;-65
2021/09/17 11:11:29;;;;;;;3.13;2.83;;;;;;;;;;5037908;28;20033;-65
2021/09/17 11:13:54;;;;;;;;;;;;;;;;;;5037209;28;20025;-65
2021/09/17 11:16:20;;;;;;;2.90;2.72;;;;;;;;;;5032502;28;19935;-66
2021/09/17 11:18:52;;;;;;;3.30;3.10;;;;;;;;;;5031606;28;20287;-65
2021/09/17 11:21:18;;;;;;;4.75;2.75;;;;;;;;;;5032079;28;20025;-64
2021/09/17 11:23:49;;;;;;;2.80;2.60;;;;;;;;;;5033086;28;20474;-65
2021/09/17 11:26:25;;;;;;;2.70;2.50;;;;;;;;;;5032766;28;20064;-65
2021/09/17 11:29:01;;;;;;;2.83;2.63;;;;;;;;;;5032539;28;20036;-65
2021/09/17 11:31:31;;;;;;;3.15;2.85;;;;;;;;;;5033187;28;20032;-66
2021/09/17 11:33:58;;;;;;;2.50;2.40;;;;;;;;;;5031903;28;20524;-65
2021/09/17 11:36:53;;;;;;;2.40;2.30;;;;;;;;;;5032736;28;20068;-65
2021/09/17 11:39:21;;;;;;;4.07;2.70;;;;;;;;;;5024048;28;20048;-64
2021/09/17 11:41:48;;;;;;;2.85;1.98;;;;;;;;;;5030681;28;20412;-65
2021/09/17 11:44:33;;;;;;;2.83;2.00;;;;;;;;;;5048490;28;20025;-63
2021/09/17 11:46:59;;;;;;;2.17;2.00;;;;;;;;;;5031222;28;20521;-63
2021/09/17 11:49:28;;;;;;;2.35;2.17;;;;;;;;;;5033066;28;20026;-61
2021/09/17 11:52:13;;;;;;;2.20;2.10;;;;;;;;;;5034201;28;20032;-62
2021/09/17 11:54:38;;;;;;;2.17;2.00;;;;;;;;;;5032160;28;20029;-67
2021/09/17 11:57:05;;;;;;;3.67;2.85;;;;;;;;;;5032130;28;20033;-62
2021/09/17 11:59:31;;;;;;;2.10;2.00;;;;;;;;;;5033092;28;20481;-65
2021/09/17 12:02:15;;;;;;;2.65;2.25;;;;;;;;;;5032120;28;20504;-64
2021/09/17 12:04:41;;;;;;;2.25;2.15;;;;;;;;;;5037308;28;20389;-62
2021/09/17 12:07:07;;;;;;;3.58;2.20;;;;;;;;;;5035143;28;20059;-64
2021/09/17 12:09:33;;;;;;;2.92;2.05;;;;;;;;;;5033953;28;20040;-62
2021/09/17 12:11:59;;;;;;;4.22;2.05;;;;;;;;;;5035645;28;20025;-62
2021/09/17 12:14:24;;;;;;;2.83;2.65;;;;;;;;;;5035953;28;20398;-59
2021/09/17 12:16:49;;;;;;;2.10;1.95;;;;;;;;;;5036594;28;20032;-60
2021/09/17 12:19:15;;;;;;;2.10;2.00;;;;;;;;;;5036615;28;20421;-60
2021/09/17 12:21:40;;;;;;;2.22;2.10;;;;;;;;;;5034500;28;20057;-60
2021/09/17 12:24:22;;;;;;;2.10;2.00;;;;;;;;;;5036165;28;20104;-62
2021/09/17 12:26:54;;;;;;;3.50;2.17;;;;;;;;;;5037044;28;20075;-61
2021/09/17 12:29:20;;;;;;;4.20;2.40;;;;;;;;;;5034429;28;20055;-60
2021/09/17 12:31:45;;;;;;;2.05;1.90;;;;;;;;;;5038778;28;20461;-59
2021/09/17 12:34:13;;;;;;;2.10;2.00;;;;;;;;;;5035964;28;20125;-62
2021/09/17 12:36:39;;;;;;;2.10;1.95;;;;;;;;;;5035276;28;20386;-61
2021/09/17 12:39:05;;;;;;;2.03;1.70;;;;;;;;;;5032658;28;20367;-65
2021/09/17 12:41:30;;;;;;;3.78;1.90;;;;;;;;;;5035442;28;20025;-64
2021/09/17 12:44:08;;;;;;;2.13;2.03;;;;;;;;;;5036943;28;20017;-65
2021/09/17 12:46:34;;;;;;;2.30;2.10;;;;;;;;;;5044660;28;20026;-64
2021/09/17 12:49:01;;;;;;;1.85;1.70;;;;;;;;;;5036510;28;20047;-67
2021/09/17 12:51:27;;;;;;;1.90;1.70;;;;;;;;;;5036704;28;20462;-65
2021/09/17 12:53:57;;;;;;;2.72;1.75;;;;;;;;;;5035037;28;20056;-67
2021/09/17 12:56:22;;;;;;;2.53;2.33;;;;;;;;;;5036583;28;20063;-65
2021/09/17 12:59:05;;;;;;;2.00;1.90;;;;;;;;;;5036217;28;20492;-67
2021/09/17 13:01:30;;;;;;;2.28;2.08;;;;;;;;;;5035863;28;20035;-67
2021/09/17 13:03:55;;;;;;;3.30;2.13;;;;;;;;;;5035489;28;20521;-67
2021/09/17 13:06:20;;;;;;;1.77;1.67;;;;;;;;;;5036113;28;20029;-66
2021/09/17 13:08:46;;;;;;;1.98;1.88;;;;;;;;;;5036044;28;20063;-67
2021/09/17 13:11:11;;;;;;;1.75;1.63;;;;;;;;;;5035585;28;20021;-66
2021/09/17 13:13:36;;;;;;;2.38;1.80;;;;;;;;;;5036087;28;20013;-66
2021/09/17 13:16:01;;;;;;;2.00;1.90;;;;;;;;;;5035295;28;20017;-66
2021/09/17 13:18:27;;;;;;;2.17;2.00;;;;;;;;;;5036964;28;20029;-66
2021/09/17 13:20:52;;;;;;;2.28;2.17;;;;;;;;;;5034420;28;20024;-65
2021/09/17 13:23:17;;;;;;;1.88;1.77;;;;;;;;;;5033944;28;20104;-65
2021/09/17 13:25:43;;;;;;;1.70;1.60;;;;;;;;;;5032191;28;20017;-65
2021/09/17 13:28:09;;;;;;;1.73;1.63;;;;;;;;;;5032822;28;20112;-67
2021/09/17 13:30:37;;;;;;;2.92;1.88;;;;;;;;;;5036805;28;20021;-66
2021/09/17 13:33:03;;;;;;;1.70;1.60;;;;;;;;;;5033263;28;20013;-66
2021/09/17 13:35:30;;;;;;;1.83;1.73;;;;;;;;;;5033031;28;20129;-66
2021/09/17 13:37:55;;;;;;;1.77;1.67;;;;;;;;;;5033794;28;20028;-65
2021/09/17 13:40:21;;;;;;;1.85;1.60;;;;;;;;;;5035018;28;20025;-67
2021/09/17 13:42:47;;;;;;;1.52;1.42;;;;;;;;;;5033855;28;20319;-66
2021/09/17 13:45:13;;;;;;;1.60;1.50;;;;;;;;;;5031353;28;20423;-65
2021/09/17 13:47:38;;;;;;;1.80;1.70;;;;;;;;;;5033446;28;20381;-64
2021/09/17 13:50:05;;;;;;;4.85;1.98;;;;;;;;;;5032801;28;20029;-65
2021/09/17 13:52:30;;;;;;;1.63;1.52;;;;;;;;;;5032893;28;20021;-65
2021/09/17 13:54:55;;;;;;;2.55;1.63;;;;;;;;;;5033734;28;20056;-64
2021/09/17 13:57:20;;;;;;;1.70;1.60;;;;;;;;;;5033508;28;20029;-64
2021/09/17 13:59:46;;;;;;;1.90;1.80;;;;;;;;;;5033035;28;20545;-66
2021/09/17 14:02:11;;;;;;;1.52;1.42;;;;;;;;;;5034243;28;20029;-66
2021/09/17 14:04:36;;;;;;;1.75;1.65;;;;;;;;;;5033724;28;20032;-64
2021/09/17 14:07:03;;;;;;;2.05;1.95;;;;;;;;;;5030637;28;20131;-64
2021/09/17 14:09:28;;;;;;;1.98;1.88;;;;;;;;;;5035407;28;20059;-65
2021/09/17 14:11:53;;;;;;;2.67;1.90;;;;;;;;;;5032441;28;20104;-63
2021/09/17 14:14:19;;;;;;;2.58;2.40;;;;;;;;;;5034946;28;20021;-63
2021/09/17 14:16:44;;;;;;;2.78;2.08;;;;;;;;;;5032374;28;20063;-64
2021/09/17 14:19:10;;;;;;;2.30;2.10;;;;;;;;;;5035774;28;20040;-65
2021/09/17 14:21:35;;;;;;;2.75;2.47;;;;;;;;;;5033686;28;20065;-64
2021/09/17 14:24:01;;;;;;;2.90;1.98;;;;;;;;;;5034196;28;20534;-66
2021/09/17 14:26:26;;;;;;;2.15;2.05;;;;;;;;;;5030945;28;20426;-66
2021/09/17 14:28:52;;;;;;;2.30;2.05;;;;;;;;;;5032978;28;20469;-66
2021/09/17 14:31:17;;;;;;;2.30;2.20;;;;;;;;;;5032706;28;20040;-65
2021/09/17 14:33:43;;;;;;;2.50;2.38;;;;;;;;;;5032429;28;20112;-65
2021/09/17 14:36:08;;;;;;;2.38;2.17;;;;;;;;;;5032926;28;20049;-65
2021/09/17 14:38:33;;;;;;;2.83;2.38;;;;;;;;;;5034622;28;20033;-64